Panorama, Canada
Current Conditions -  °F | °C
As of 9:00 PM on Saturday 22 Nov 2014 (Local Time) from CYXC Reporting Station
Few Clouds Few Clouds  
Wind Chill: 20°   Ceiling: Unl
Heat Index: 27°   Visibility: 25mi
Dew Point: 21°   Wind: 6mph
Humidity: 80%   Direction: 160°SSE
Pressure: 29.69"   Gusts: NA
Location:  50.46°N, 116.24°W
Report Text: CYXC 230400Z 16005KT 110V170 25SM FEW070 M03/M06 A2969 RMK AC1 SLP084
Loading
Personal Weather Stations






























Interactive Weather Map New forecast layout! Learn more

10-Day Weather Forecast

Advertisements
Track Severe Weather on mobile